This demonstration page uses our WeatherBlox Daily Observations layout. Learn more.

41.55636, -103.73856

Hourly Observations for August 14, 2019

Temp ( °F °C ) Dew Point ( °F °C ) Humidity (%) Winds ( mph kmh ) Pressure ( in mb ) Visibility ( mi km ) Precip ( " mm )
12:53 am 00:53 Clear 60 15.6 58 14.4 93 93 E 7 11 30.15 1021 10 16.09344 0 0
1:53 am 01:53 Clear 59 15 58 14.4 96 96 ESE 5 7 30.12 1020 10 16.09344 0 0
2:53 am 02:53 Clear 59 15 58 14.4 96 96 ESE 6 9 30.09 1019 10 16.09344 0 0
3:53 am 03:53 Clear 59 15 57 13.9 93 93 ESE 9 15 30.09 1019 10 16.09344 0 0
4:53 am 04:53 Clear 58 14.4 57 13.9 97 97 E 7 11 30.09 1019 10 16.09344 0 0
5:53 am 05:53 Clear 58 14.4 56 13.3 93 93 E 7 11 30.09 1019 10 16.09344 0 0
6:53 am 06:53 Sunny 59 15 56 13.3 90 90 ESE 8 13 30.09 1019 10 16.09344 0 0
7:53 am 07:53 Partly Cloudy 60 15.6 57 13.9 90 90 ESE 13 20 30.12 1020 10 16.09344 0 0
8:53 am 08:53 Sunny 64 17.8 59 15 84 84 ESE 13 20 30.12 1020 10 16.09344 0 0
9:53 am 09:53 Sunny 68 20 59 15 73 73 E 13 20 30.09 1019 10 16.09344 0 0
10:53 am 10:53 Mostly Sunny 73 22.8 60 15.6 64 64 E 18 30 30.06 1018 10 16.09344 0 0
11:53 am 11:53 Sunny 74 23.3 61 16.1 64 64 ESE 20 31 30.06 1018 10 16.09344 0 0
12:53 pm 12:53 Sunny 77 25 62 16.7 60 60 ESE 17 28 30.03 1017 10 16.09344 0 0
1:53 pm 13:53 Sunny 79 26.1 63 17.2 58 58 E 16 26 30.03 1017 10 16.09344 0 0
2:53 pm 14:53 Sunny 80 26.7 63 17.2 56 56 E 17 28 30 1016 10 16.09344 0 0
3:53 pm 15:53 Sunny 79 26.1 63 17.2 58 58 E 20 31 30 1016 10 16.09344 0 0
4:53 pm 16:53 Mostly Sunny 77 25 62 16.7 60 60 ESE 18 30 30 1016 10 16.09344 0 0
5:53 pm 17:53 Sunny 74 23.3 61 16.1 64 64 ESE 17 28 30.03 1017 10 16.09344 0 0
6:53 pm 18:53 Sunny 72 22.2 62 16.7 71 71 ESE 17 28 30 1016 10 16.09344 0 0
7:53 pm 19:53 Sunny 68 20 61 16.1 78 78 ESE 14 22 30.03 1017 10 16.09344 0 0
8:53 pm 20:53 Clear 66 18.9 61 16.1 84 84 ESE 13 20 30.03 1017 10 16.09344 0 0
9:53 pm 21:53 Clear 65 18.3 61 16.1 87 87 ESE 15 24 30.03 1017 10 16.09344 0 0
10:53 pm 22:53 Clear 63 17.2 59 15 87 87 ESE 14 22 30 1016 10 16.09344 0 0
11:53 pm 23:53 Clear 61 16.1 58 14.4 90 90 ESE 13 20 29.97 1015 10 16.09344 0 0

Powered by AerisWeather